Archival Weather

Chicago O'Hare International

Chicago, Illinois (KORD)

Report from: Saturday, March 18, 2023 12:21 PM CDT
Current time: Saturday, March 2, 2024 4:47 AM CST

Current weather – Weather history – Daily summaries
Weather forecast

Present weatherLight snow
Temperature-6.7°C (19.9°F)
Wind chill-15.1°C (4.7°F)
Dew point-13.9°C (7.0°F)
Winds 16 kts (8.2 m/s, 18.4 mph) West-Northwest (290°)
Wind gusts 25 kts (12.9 m/s, 28.8 mph)
Peak wind 28 kts (14.4 m/s, 32.2 mph) West (270°) at 17:09
Visibility3 mi. (4.8 km)
Clouds Scattered clouds 2,400 ft. (732 m)
Ceiling: Broken clouds 3,100 ft. (945 m)
Overcast 4,000 ft. (1,219 m)
Altimeter30.03 in.Hg (1017 mB)
PrecipitiationTrace
Precip. events Snow began 5:15 PM
Relative humidity56 %
Density altitude-2,781 ft. (-848 m)
Remarks Automated weather observing station with precipitation discriminator
Visibility west
Flight conditions Marginal Visual Meteorological Conditions
Raw dataKORD 181721Z 29016G25KT 3SM -SN SCT024 BKN031 OVC040 M07/M14 A3003 RMK AO2 PK WND 27028/1709 SNB15 VIS W 2 P0000 T10671139
An error has occurred. This application may no longer respond until reloaded. Reload 🗙